sensor_id;sensor_type;location;lat;lon;timestamp;temperature;humidity
802;DHT22;383;48.766;9.270;2023-05-14T00:01:01;13.60;99.90
802;DHT22;383;48.766;9.270;2023-05-14T00:03:28;13.60;99.90
802;DHT22;383;48.766;9.270;2023-05-14T00:05:55;13.50;99.90
802;DHT22;383;48.766;9.270;2023-05-14T00:08:22;13.50;99.90
802;DHT22;383;48.766;9.270;2023-05-14T00:10:48;13.40;99.90
802;DHT22;383;48.766;9.270;2023-05-14T00:13:15;13.50;99.90
802;DHT22;383;48.766;9.270;2023-05-14T00:15:42;13.50;99.90
802;DHT22;383;48.766;9.270;2023-05-14T00:18:10;13.50;99.90
802;DHT22;383;48.766;9.270;2023-05-14T00:20:37;13.50;99.90
802;DHT22;383;48.766;9.270;2023-05-14T00:23:03;13.50;99.90
802;DHT22;383;48.766;9.270;2023-05-14T00:25:30;13.50;99.90
802;DHT22;383;48.766;9.270;2023-05-14T00:27:57;13.40;99.90
802;DHT22;383;48.766;9.270;2023-05-14T00:30:24;13.30;99.90
802;DHT22;383;48.766;9.270;2023-05-14T00:32:50;13.30;99.90
802;DHT22;383;48.766;9.270;2023-05-14T00:35:19;13.30;99.90
802;DHT22;383;48.766;9.270;2023-05-14T00:37:46;13.20;99.90
802;DHT22;383;48.766;9.270;2023-05-14T00:40:13;13.20;99.90
802;DHT22;383;48.766;9.270;2023-05-14T00:42:40;13.10;99.90
802;DHT22;383;48.766;9.270;2023-05-14T00:45:07;13.20;99.90
802;DHT22;383;48.766;9.270;2023-05-14T00:47:34;13.10;99.90
802;DHT22;383;48.766;9.270;2023-05-14T00:50:01;13.00;99.90
802;DHT22;383;48.766;9.270;2023-05-14T00:52:30;13.00;99.90
802;DHT22;383;48.766;9.270;2023-05-14T00:54:57;13.00;99.90
802;DHT22;383;48.766;9.270;2023-05-14T00:57:24;13.00;99.90
802;DHT22;383;48.766;9.270;2023-05-14T00:59:51;12.90;99.90
802;DHT22;383;48.766;9.270;2023-05-14T01:02:18;12.80;99.90
802;DHT22;383;48.766;9.270;2023-05-14T01:04:45;12.80;99.90
802;DHT22;383;48.766;9.270;2023-05-14T01:07:19;12.80;99.90
802;DHT22;383;48.766;9.270;2023-05-14T01:09:51;12.70;99.90
802;DHT22;383;48.766;9.270;2023-05-14T01:12:25;12.60;99.90
802;DHT22;383;48.766;9.270;2023-05-14T01:14:56;12.60;99.90
802;DHT22;383;48.766;9.270;2023-05-14T01:17:27;12.50;99.90
802;DHT22;383;48.766;9.270;2023-05-14T01:19:54;12.40;99.90
802;DHT22;383;48.766;9.270;2023-05-14T01:22:23;12.30;99.90
802;DHT22;383;48.766;9.270;2023-05-14T01:24:50;12.20;99.90
802;DHT22;383;48.766;9.270;2023-05-14T01:27:22;12.20;99.90
802;DHT22;383;48.766;9.270;2023-05-14T01:29:55;12.10;99.90
802;DHT22;383;48.766;9.270;2023-05-14T01:32:24;12.10;99.90
802;DHT22;383;48.766;9.270;2023-05-14T01:34:52;12.00;99.90
802;DHT22;383;48.766;9.270;2023-05-14T01:37:20;12.00;99.90
802;DHT22;383;48.766;9.270;2023-05-14T01:39:49;11.90;99.90
802;DHT22;383;48.766;9.270;2023-05-14T01:42:17;11.90;99.90
802;DHT22;383;48.766;9.270;2023-05-14T01:44:44;11.80;99.90
802;DHT22;383;48.766;9.270;2023-05-14T01:47:10;11.80;99.90
802;DHT22;383;48.766;9.270;2023-05-14T01:49:37;11.80;99.90
802;DHT22;383;48.766;9.270;2023-05-14T01:52:04;11.80;99.90
802;DHT22;383;48.766;9.270;2023-05-14T01:54:32;11.80;99.90
802;DHT22;383;48.766;9.270;2023-05-14T01:57:01;11.80;99.90
802;DHT22;383;48.766;9.270;2023-05-14T01:59:27;11.70;99.90
802;DHT22;383;48.766;9.270;2023-05-14T02:01:54;11.60;99.90
802;DHT22;383;48.766;9.270;2023-05-14T02:04:21;11.50;99.90
802;DHT22;383;48.766;9.270;2023-05-14T02:06:48;11.50;99.90
802;DHT22;383;48.766;9.270;2023-05-14T02:09:14;11.40;99.90
802;DHT22;383;48.766;9.270;2023-05-14T02:11:41;11.40;99.90
802;DHT22;383;48.766;9.270;2023-05-14T02:14:09;11.40;99.90
802;DHT22;383;48.766;9.270;2023-05-14T02:16:36;11.30;99.90
802;DHT22;383;48.766;9.270;2023-05-14T02:19:02;11.30;99.90
802;DHT22;383;48.766;9.270;2023-05-14T02:21:29;11.30;99.90
802;DHT22;383;48.766;9.270;2023-05-14T02:23:56;11.30;99.90
802;DHT22;383;48.766;9.270;2023-05-14T02:26:23;11.40;99.90
802;DHT22;383;48.766;9.270;2023-05-14T02:28:50;11.40;99.90
802;DHT22;383;48.766;9.270;2023-05-14T02:31:18;11.40;99.90
802;DHT22;383;48.766;9.270;2023-05-14T02:33:44;11.40;99.90
802;DHT22;383;48.766;9.270;2023-05-14T02:36:11;11.40;99.90
802;DHT22;383;48.766;9.270;2023-05-14T02:38:38;11.30;99.90
802;DHT22;383;48.766;9.270;2023-05-14T02:41:05;11.30;99.90
802;DHT22;383;48.766;9.270;2023-05-14T02:43:31;11.30;99.90
802;DHT22;383;48.766;9.270;2023-05-14T02:45:58;11.40;99.90
802;DHT22;383;48.766;9.270;2023-05-14T02:48:26;11.40;99.90
802;DHT22;383;48.766;9.270;2023-05-14T02:50:53;11.40;99.90
802;DHT22;383;48.766;9.270;2023-05-14T02:53:19;11.50;99.90
802;DHT22;383;48.766;9.270;2023-05-14T02:55:46;11.50;99.90
802;DHT22;383;48.766;9.270;2023-05-14T02:58:13;11.50;99.90
802;DHT22;383;48.766;9.270;2023-05-14T03:00:40;11.50;99.90
802;DHT22;383;48.766;9.270;2023-05-14T03:03:07;11.50;99.90
802;DHT22;383;48.766;9.270;2023-05-14T03:05:35;11.50;99.90
802;DHT22;383;48.766;9.270;2023-05-14T03:08:01;11.50;99.90
802;DHT22;383;48.766;9.270;2023-05-14T03:10:28;11.60;99.90
802;DHT22;383;48.766;9.270;2023-05-14T03:12:55;11.70;99.90
802;DHT22;383;48.766;9.270;2023-05-14T03:15:22;11.70;99.90
802;DHT22;383;48.766;9.270;2023-05-14T03:17:48;11.70;99.90
802;DHT22;383;48.766;9.270;2023-05-14T03:20:15;11.70;99.90
802;DHT22;383;48.766;9.270;2023-05-14T03:22:43;11.80;99.90
802;DHT22;383;48.766;9.270;2023-05-14T03:25:10;11.80;99.90
802;DHT22;383;48.766;9.270;2023-05-14T03:27:37;11.80;99.90
802;DHT22;383;48.766;9.270;2023-05-14T03:30:04;11.90;99.90
802;DHT22;383;48.766;9.270;2023-05-14T03:32:31;12.00;99.90
802;DHT22;383;48.766;9.270;2023-05-14T03:34:58;12.10;99.90
802;DHT22;383;48.766;9.270;2023-05-14T03:37:25;12.10;99.90
802;DHT22;383;48.766;9.270;2023-05-14T03:39:53;12.10;99.90
802;DHT22;383;48.766;9.270;2023-05-14T03:42:19;12.20;99.90
802;DHT22;383;48.766;9.270;2023-05-14T03:44:46;12.10;99.90
802;DHT22;383;48.766;9.270;2023-05-14T03:47:12;12.10;99.90
802;DHT22;383;48.766;9.270;2023-05-14T03:49:39;12.10;99.90
802;DHT22;383;48.766;9.270;2023-05-14T03:52:06;12.20;99.90
802;DHT22;383;48.766;9.270;2023-05-14T03:54:32;12.20;99.90
802;DHT22;383;48.766;9.270;2023-05-14T03:57:00;12.20;99.90
802;DHT22;383;48.766;9.270;2023-05-14T03:59:27;12.30;99.90
802;DHT22;383;48.766;9.270;2023-05-14T04:01:54;12.30;99.90
802;DHT22;383;48.766;9.270;2023-05-14T04:04:20;12.40;99.90
802;DHT22;383;48.766;9.270;2023-05-14T04:06:47;12.40;99.90
802;DHT22;383;48.766;9.270;2023-05-14T04:09:14;12.40;99.90
802;DHT22;383;48.766;9.270;2023-05-14T04:11:40;12.50;99.90
802;DHT22;383;48.766;9.270;2023-05-14T04:14:08;12.50;99.90
802;DHT22;383;48.766;9.270;2023-05-14T04:16:35;12.50;99.90
802;DHT22;383;48.766;9.270;2023-05-14T04:19:02;12.50;99.90
802;DHT22;383;48.766;9.270;2023-05-14T04:21:29;12.50;99.70
802;DHT22;383;48.766;9.270;2023-05-14T04:23:55;12.50;99.40
802;DHT22;383;48.766;9.270;2023-05-14T04:26:22;12.50;99.60
802;DHT22;383;48.766;9.270;2023-05-14T04:28:49;12.50;99.90
802;DHT22;383;48.766;9.270;2023-05-14T04:31:17;12.50;99.90
802;DHT22;383;48.766;9.270;2023-05-14T04:33:44;12.50;99.70
802;DHT22;383;48.766;9.270;2023-05-14T04:36:10;12.60;99.50
802;DHT22;383;48.766;9.270;2023-05-14T04:38:37;12.60;99.30
802;DHT22;383;48.766;9.270;2023-05-14T04:41:04;12.60;99.10
802;DHT22;383;48.766;9.270;2023-05-14T04:43:31;12.70;98.10
802;DHT22;383;48.766;9.270;2023-05-14T04:45:58;12.70;97.60
802;DHT22;383;48.766;9.270;2023-05-14T04:48:26;12.70;97.50
802;DHT22;383;48.766;9.270;2023-05-14T04:50:53;12.50;98.20
802;DHT22;383;48.766;9.270;2023-05-14T04:53:19;12.50;98.40
802;DHT22;383;48.766;9.270;2023-05-14T04:55:46;12.50;98.80
802;DHT22;383;48.766;9.270;2023-05-14T04:58:13;12.50;99.40
802;DHT22;383;48.766;9.270;2023-05-14T05:00:39;12.50;98.70
802;DHT22;383;48.766;9.270;2023-05-14T05:03:06;12.60;98.20
802;DHT22;383;48.766;9.270;2023-05-14T05:05:34;12.50;98.30
802;DHT22;383;48.766;9.270;2023-05-14T05:08:01;12.50;98.40
802;DHT22;383;48.766;9.270;2023-05-14T05:10:27;12.50;98.60
802;DHT22;383;48.766;9.270;2023-05-14T05:12:54;12.50;98.40
802;DHT22;383;48.766;9.270;2023-05-14T05:15:21;12.50;98.20
802;DHT22;383;48.766;9.270;2023-05-14T05:17:47;12.50;98.30
802;DHT22;383;48.766;9.270;2023-05-14T05:20:14;12.50;98.50
802;DHT22;383;48.766;9.270;2023-05-14T05:22:42;12.50;98.60
802;DHT22;383;48.766;9.270;2023-05-14T05:25:09;12.60;98.70
802;DHT22;383;48.766;9.270;2023-05-14T05:27:37;12.70;98.40
802;DHT22;383;48.766;9.270;2023-05-14T05:30:04;12.70;97.50
802;DHT22;383;48.766;9.270;2023-05-14T05:32:32;12.70;97.50
802;DHT22;383;48.766;9.270;2023-05-14T05:34:58;12.80;96.90
802;DHT22;383;48.766;9.270;2023-05-14T05:37:25;12.70;97.50
802;DHT22;383;48.766;9.270;2023-05-14T05:39:53;12.80;97.80
802;DHT22;383;48.766;9.270;2023-05-14T05:42:20;12.80;97.80
802;DHT22;383;48.766;9.270;2023-05-14T05:44:47;12.90;96.60
802;DHT22;383;48.766;9.270;2023-05-14T05:47:14;12.90;96.80
802;DHT22;383;48.766;9.270;2023-05-14T05:49:41;13.00;96.50
802;DHT22;383;48.766;9.270;2023-05-14T05:52:08;13.00;96.70
802;DHT22;383;48.766;9.270;2023-05-14T05:54:35;13.10;96.60
802;DHT22;383;48.766;9.270;2023-05-14T05:57:05;13.20;96.70
802;DHT22;383;48.766;9.270;2023-05-14T05:59:32;13.30;95.90
802;DHT22;383;48.766;9.270;2023-05-14T06:01:59;13.30;95.60
802;DHT22;383;48.766;9.270;2023-05-14T06:04:25;13.40;95.30
802;DHT22;383;48.766;9.270;2023-05-14T06:06:52;13.40;95.30
802;DHT22;383;48.766;9.270;2023-05-14T06:09:19;13.50;94.20
802;DHT22;383;48.766;9.270;2023-05-14T06:11:46;13.50;94.00
802;DHT22;383;48.766;9.270;2023-05-14T06:14:14;13.50;94.20
802;DHT22;383;48.766;9.270;2023-05-14T06:16:40;13.50;93.80
802;DHT22;383;48.766;9.270;2023-05-14T06:19:07;13.60;93.30
802;DHT22;383;48.766;9.270;2023-05-14T06:21:34;13.60;93.30
802;DHT22;383;48.766;9.270;2023-05-14T06:24:01;13.60;93.70
802;DHT22;383;48.766;9.270;2023-05-14T06:26:28;13.60;94.00
802;DHT22;383;48.766;9.270;2023-05-14T06:28:54;13.70;94.10
802;DHT22;383;48.766;9.270;2023-05-14T06:31:22;13.80;93.90
802;DHT22;383;48.766;9.270;2023-05-14T06:33:49;13.90;93.70
802;DHT22;383;48.766;9.270;2023-05-14T06:36:16;14.00;93.80
802;DHT22;383;48.766;9.270;2023-05-14T06:38:42;14.10;92.50
802;DHT22;383;48.766;9.270;2023-05-14T06:41:09;14.20;91.50
802;DHT22;383;48.766;9.270;2023-05-14T06:43:36;14.20;91.80
802;DHT22;383;48.766;9.270;2023-05-14T06:46:03;14.20;91.70
802;DHT22;383;48.766;9.270;2023-05-14T06:48:31;14.30;91.70
802;DHT22;383;48.766;9.270;2023-05-14T06:50:58;14.30;91.70
802;DHT22;383;48.766;9.270;2023-05-14T06:53:24;14.40;91.20
802;DHT22;383;48.766;9.270;2023-05-14T06:55:51;14.30;91.90
802;DHT22;383;48.766;9.270;2023-05-14T06:58:18;14.30;93.10
802;DHT22;383;48.766;9.270;2023-05-14T07:00:44;14.40;92.40
802;DHT22;383;48.766;9.270;2023-05-14T07:03:11;14.40;91.50
802;DHT22;383;48.766;9.270;2023-05-14T07:05:39;14.50;92.10
802;DHT22;383;48.766;9.270;2023-05-14T07:08:06;14.60;91.10
802;DHT22;383;48.766;9.270;2023-05-14T07:10:33;14.70;90.00
802;DHT22;383;48.766;9.270;2023-05-14T07:13:00;14.80;90.50
802;DHT22;383;48.766;9.270;2023-05-14T07:15:27;14.80;90.90
802;DHT22;383;48.766;9.270;2023-05-14T07:17:54;15.00;90.00
802;DHT22;383;48.766;9.270;2023-05-14T07:20:21;15.20;89.70
802;DHT22;383;48.766;9.270;2023-05-14T07:22:51;15.40;88.20
802;DHT22;383;48.766;9.270;2023-05-14T07:25:18;15.50;87.30
802;DHT22;383;48.766;9.270;2023-05-14T07:27:45;15.40;87.70
802;DHT22;383;48.766;9.270;2023-05-14T07:30:12;15.60;88.00
802;DHT22;383;48.766;9.270;2023-05-14T07:32:39;15.80;88.90
802;DHT22;383;48.766;9.270;2023-05-14T07:35:06;16.00;86.90
802;DHT22;383;48.766;9.270;2023-05-14T07:37:33;16.20;84.40
802;DHT22;383;48.766;9.270;2023-05-14T07:40:01;16.40;83.90
802;DHT22;383;48.766;9.270;2023-05-14T07:42:28;16.40;84.90
802;DHT22;383;48.766;9.270;2023-05-14T07:44:55;16.50;84.40
802;DHT22;383;48.766;9.270;2023-05-14T07:47:21;16.50;83.70
802;DHT22;383;48.766;9.270;2023-05-14T07:49:48;16.30;82.60
802;DHT22;383;48.766;9.270;2023-05-14T07:52:19;16.10;84.50
802;DHT22;383;48.766;9.270;2023-05-14T07:54:48;16.00;85.50
802;DHT22;383;48.766;9.270;2023-05-14T07:57:17;16.00;85.60
802;DHT22;383;48.766;9.270;2023-05-14T07:59:43;16.10;86.00
802;DHT22;383;48.766;9.270;2023-05-14T08:02:10;16.20;84.80
802;DHT22;383;48.766;9.270;2023-05-14T08:04:38;16.10;84.70
802;DHT22;383;48.766;9.270;2023-05-14T08:07:05;16.20;84.90
802;DHT22;383;48.766;9.270;2023-05-14T08:09:33;16.30;86.00
802;DHT22;383;48.766;9.270;2023-05-14T08:11:59;16.40;85.10
802;DHT22;383;48.766;9.270;2023-05-14T08:14:28;16.40;84.90
802;DHT22;383;48.766;9.270;2023-05-14T08:16:54;16.60;84.70
802;DHT22;383;48.766;9.270;2023-05-14T08:19:21;16.80;84.40
802;DHT22;383;48.766;9.270;2023-05-14T08:21:48;16.90;83.00
802;DHT22;383;48.766;9.270;2023-05-14T08:24:15;17.20;81.00
802;DHT22;383;48.766;9.270;2023-05-14T08:26:42;17.40;81.10
802;DHT22;383;48.766;9.270;2023-05-14T08:29:09;17.50;80.60
802;DHT22;383;48.766;9.270;2023-05-14T08:31:37;17.70;78.20
802;DHT22;383;48.766;9.270;2023-05-14T08:34:04;17.70;79.00
802;DHT22;383;48.766;9.270;2023-05-14T08:36:30;17.90;77.80
802;DHT22;383;48.766;9.270;2023-05-14T08:38:57;17.90;77.00
802;DHT22;383;48.766;9.270;2023-05-14T08:41:24;17.90;77.50
802;DHT22;383;48.766;9.270;2023-05-14T08:43:57;17.90;77.10
802;DHT22;383;48.766;9.270;2023-05-14T08:46:29;17.80;79.00
802;DHT22;383;48.766;9.270;2023-05-14T08:49:04;17.90;79.90
802;DHT22;383;48.766;9.270;2023-05-14T08:51:34;18.00;76.70
802;DHT22;383;48.766;9.270;2023-05-14T08:54:01;18.00;78.70
802;DHT22;383;48.766;9.270;2023-05-14T08:56:31;18.00;78.50
802;DHT22;383;48.766;9.270;2023-05-14T08:58:58;18.30;76.50
802;DHT22;383;48.766;9.270;2023-05-14T09:01:26;18.50;75.60
802;DHT22;383;48.766;9.270;2023-05-14T09:03:54;18.60;73.70
802;DHT22;383;48.766;9.270;2023-05-14T09:06:23;18.70;75.40
802;DHT22;383;48.766;9.270;2023-05-14T09:08:50;18.80;75.00
802;DHT22;383;48.766;9.270;2023-05-14T09:11:18;18.90;74.80
802;DHT22;383;48.766;9.270;2023-05-14T09:13:45;19.10;73.40
802;DHT22;383;48.766;9.270;2023-05-14T09:16:11;19.20;73.60
802;DHT22;383;48.766;9.270;2023-05-14T09:18:42;19.20;72.90
802;DHT22;383;48.766;9.270;2023-05-14T09:21:09;19.30;71.20
802;DHT22;383;48.766;9.270;2023-05-14T09:23:41;19.40;72.40
802;DHT22;383;48.766;9.270;2023-05-14T09:26:07;19.60;74.40
802;DHT22;383;48.766;9.270;2023-05-14T09:28:34;19.90;69.20
802;DHT22;383;48.766;9.270;2023-05-14T09:31:01;19.90;68.40
802;DHT22;383;48.766;9.270;2023-05-14T09:33:28;19.80;68.80
802;DHT22;383;48.766;9.270;2023-05-14T09:35:57;19.60;68.90
802;DHT22;383;48.766;9.270;2023-05-14T09:38:27;19.30;68.00
802;DHT22;383;48.766;9.270;2023-05-14T09:40:56;19.10;69.70
802;DHT22;383;48.766;9.270;2023-05-14T09:43:23;19.20;70.80
802;DHT22;383;48.766;9.270;2023-05-14T09:45:50;19.30;70.70
802;DHT22;383;48.766;9.270;2023-05-14T09:48:17;19.20;70.50
802;DHT22;383;48.766;9.270;2023-05-14T09:50:45;19.00;73.20
802;DHT22;383;48.766;9.270;2023-05-14T09:53:12;18.90;73.00
802;DHT22;383;48.766;9.270;2023-05-14T09:55:39;18.90;71.90
802;DHT22;383;48.766;9.270;2023-05-14T09:58:07;18.90;71.20
802;DHT22;383;48.766;9.270;2023-05-14T10:00:34;18.90;72.50
802;DHT22;383;48.766;9.270;2023-05-14T10:03:04;18.90;73.40
802;DHT22;383;48.766;9.270;2023-05-14T10:05:32;18.90;73.00
802;DHT22;383;48.766;9.270;2023-05-14T10:08:03;18.80;72.30
802;DHT22;383;48.766;9.270;2023-05-14T10:10:32;18.80;72.10
802;DHT22;383;48.766;9.270;2023-05-14T10:13:03;18.70;71.70
802;DHT22;383;48.766;9.270;2023-05-14T10:15:36;18.80;73.60
802;DHT22;383;48.766;9.270;2023-05-14T10:18:12;18.90;70.80
802;DHT22;383;48.766;9.270;2023-05-14T10:20:40;19.00;72.50
802;DHT22;383;48.766;9.270;2023-05-14T10:23:07;19.10;71.90
802;DHT22;383;48.766;9.270;2023-05-14T10:25:34;19.20;70.90
802;DHT22;383;48.766;9.270;2023-05-14T10:28:02;19.20;71.70
802;DHT22;383;48.766;9.270;2023-05-14T10:30:31;19.30;69.70
802;DHT22;383;48.766;9.270;2023-05-14T10:33:10;19.40;70.90
802;DHT22;383;48.766;9.270;2023-05-14T10:35:54;19.50;69.70
802;DHT22;383;48.766;9.270;2023-05-14T10:38:26;19.70;69.60
802;DHT22;383;48.766;9.270;2023-05-14T10:41:01;19.90;68.30
802;DHT22;383;48.766;9.270;2023-05-14T10:43:29;20.10;68.70
802;DHT22;383;48.766;9.270;2023-05-14T10:45:56;20.30;67.10
802;DHT22;383;48.766;9.270;2023-05-14T10:48:25;20.40;66.80
802;DHT22;383;48.766;9.270;2023-05-14T10:50:52;20.50;67.80
802;DHT22;383;48.766;9.270;2023-05-14T10:53:29;20.60;67.10
802;DHT22;383;48.766;9.270;2023-05-14T10:55:57;20.70;65.10
802;DHT22;383;48.766;9.270;2023-05-14T10:58:29;20.70;65.40
802;DHT22;383;48.766;9.270;2023-05-14T11:00:56;20.70;65.10
802;DHT22;383;48.766;9.270;2023-05-14T11:03:24;20.60;64.90
802;DHT22;383;48.766;9.270;2023-05-14T11:05:54;20.60;65.90
802;DHT22;383;48.766;9.270;2023-05-14T11:08:21;20.70;65.90
802;DHT22;383;48.766;9.270;2023-05-14T11:10:48;20.70;65.10
802;DHT22;383;48.766;9.270;2023-05-14T11:13:15;20.70;63.90
802;DHT22;383;48.766;9.270;2023-05-14T11:15:43;20.80;64.10
802;DHT22;383;48.766;9.270;2023-05-14T11:18:26;20.80;63.70
802;DHT22;383;48.766;9.270;2023-05-14T11:20:56;20.70;64.30
802;DHT22;383;48.766;9.270;2023-05-14T11:23:23;20.80;64.50
802;DHT22;383;48.766;9.270;2023-05-14T11:25:50;20.70;65.20
802;DHT22;383;48.766;9.270;2023-05-14T11:28:19;20.70;64.70
802;DHT22;383;48.766;9.270;2023-05-14T11:30:45;20.70;64.30
802;DHT22;383;48.766;9.270;2023-05-14T11:33:12;20.80;63.30
802;DHT22;383;48.766;9.270;2023-05-14T11:35:41;21.00;64.10
802;DHT22;383;48.766;9.270;2023-05-14T11:38:13;21.20;65.20
802;DHT22;383;48.766;9.270;2023-05-14T11:40:39;21.50;62.90
802;DHT22;383;48.766;9.270;2023-05-14T11:43:06;21.40;63.70
802;DHT22;383;48.766;9.270;2023-05-14T11:45:33;21.30;64.50
802;DHT22;383;48.766;9.270;2023-05-14T11:48:02;21.10;64.10
802;DHT22;383;48.766;9.270;2023-05-14T11:50:36;21.00;64.90
802;DHT22;383;48.766;9.270;2023-05-14T11:53:04;20.90;64.30
802;DHT22;383;48.766;9.270;2023-05-14T11:55:33;20.70;64.60
802;DHT22;383;48.766;9.270;2023-05-14T11:58:00;20.70;64.10
802;DHT22;383;48.766;9.270;2023-05-14T12:00:27;20.70;64.20
802;DHT22;383;48.766;9.270;2023-05-14T12:02:54;20.70;64.30
802;DHT22;383;48.766;9.270;2023-05-14T12:05:20;20.70;63.40
802;DHT22;383;48.766;9.270;2023-05-14T12:07:47;20.60;64.20
802;DHT22;383;48.766;9.270;2023-05-14T12:10:15;20.60;65.40
802;DHT22;383;48.766;9.270;2023-05-14T12:12:44;20.60;65.00
802;DHT22;383;48.766;9.270;2023-05-14T12:15:13;20.60;65.80
802;DHT22;383;48.766;9.270;2023-05-14T12:17:40;20.30;63.40
802;DHT22;383;48.766;9.270;2023-05-14T12:20:08;20.10;66.30
802;DHT22;383;48.766;9.270;2023-05-14T12:22:37;20.10;62.60
802;DHT22;383;48.766;9.270;2023-05-14T12:25:08;20.10;64.90
802;DHT22;383;48.766;9.270;2023-05-14T12:27:37;19.90;66.20
802;DHT22;383;48.766;9.270;2023-05-14T12:30:05;19.90;64.20
802;DHT22;383;48.766;9.270;2023-05-14T12:32:33;20.00;63.70
802;DHT22;383;48.766;9.270;2023-05-14T12:34:59;20.10;63.50
802;DHT22;383;48.766;9.270;2023-05-14T12:37:26;20.00;62.10
802;DHT22;383;48.766;9.270;2023-05-14T12:39:53;20.00;64.30
802;DHT22;383;48.766;9.270;2023-05-14T12:42:20;20.00;62.90
802;DHT22;383;48.766;9.270;2023-05-14T12:44:48;20.10;62.50
802;DHT22;383;48.766;9.270;2023-05-14T12:47:15;20.10;62.30
802;DHT22;383;48.766;9.270;2023-05-14T12:49:42;20.20;62.20
802;DHT22;383;48.766;9.270;2023-05-14T12:52:09;20.20;61.10
802;DHT22;383;48.766;9.270;2023-05-14T12:54:35;20.30;62.90
802;DHT22;383;48.766;9.270;2023-05-14T12:57:05;20.50;61.00
802;DHT22;383;48.766;9.270;2023-05-14T12:59:31;20.70;60.90
802;DHT22;383;48.766;9.270;2023-05-14T13:01:59;21.00;61.40
802;DHT22;383;48.766;9.270;2023-05-14T13:04:26;21.30;59.70
802;DHT22;383;48.766;9.270;2023-05-14T13:06:53;21.30;58.60
802;DHT22;383;48.766;9.270;2023-05-14T13:09:19;21.40;58.00
802;DHT22;383;48.766;9.270;2023-05-14T13:11:46;21.40;58.80
802;DHT22;383;48.766;9.270;2023-05-14T13:14:13;21.60;58.60
802;DHT22;383;48.766;9.270;2023-05-14T13:16:40;21.80;58.30
802;DHT22;383;48.766;9.270;2023-05-14T13:19:08;21.90;58.10
802;DHT22;383;48.766;9.270;2023-05-14T13:21:34;21.90;58.50
802;DHT22;383;48.766;9.270;2023-05-14T13:24:01;21.90;57.40
802;DHT22;383;48.766;9.270;2023-05-14T13:26:28;21.90;58.10
802;DHT22;383;48.766;9.270;2023-05-14T13:28:55;22.10;58.80
802;DHT22;383;48.766;9.270;2023-05-14T13:31:22;22.30;58.20
802;DHT22;383;48.766;9.270;2023-05-14T13:33:48;22.50;57.00
802;DHT22;383;48.766;9.270;2023-05-14T13:36:16;22.30;56.10
802;DHT22;383;48.766;9.270;2023-05-14T13:38:43;21.80;57.00
802;DHT22;383;48.766;9.270;2023-05-14T13:41:10;21.40;57.00
802;DHT22;383;48.766;9.270;2023-05-14T13:43:37;21.20;59.00
802;DHT22;383;48.766;9.270;2023-05-14T13:46:05;20.90;59.80
802;DHT22;383;48.766;9.270;2023-05-14T13:48:32;20.80;61.50
802;DHT22;383;48.766;9.270;2023-05-14T13:51:00;21.10;61.30
802;DHT22;383;48.766;9.270;2023-05-14T13:53:28;21.40;60.90
802;DHT22;383;48.766;9.270;2023-05-14T13:55:55;21.70;60.50
802;DHT22;383;48.766;9.270;2023-05-14T13:58:22;21.90;59.20
802;DHT22;383;48.766;9.270;2023-05-14T14:00:49;22.10;57.70
802;DHT22;383;48.766;9.270;2023-05-14T14:03:17;22.10;55.70
802;DHT22;383;48.766;9.270;2023-05-14T14:05:43;22.20;56.40
802;DHT22;383;48.766;9.270;2023-05-14T14:08:10;22.30;55.50
802;DHT22;383;48.766;9.270;2023-05-14T14:10:38;22.30;57.00
802;DHT22;383;48.766;9.270;2023-05-14T14:13:06;22.40;56.40
802;DHT22;383;48.766;9.270;2023-05-14T14:15:34;22.70;57.60
802;DHT22;383;48.766;9.270;2023-05-14T14:18:00;22.80;57.10
802;DHT22;383;48.766;9.270;2023-05-14T14:20:27;23.00;57.10
802;DHT22;383;48.766;9.270;2023-05-14T14:22:55;23.20;56.20
802;DHT22;383;48.766;9.270;2023-05-14T14:25:22;23.30;54.90
802;DHT22;383;48.766;9.270;2023-05-14T14:27:50;23.50;55.90
802;DHT22;383;48.766;9.270;2023-05-14T14:30:17;23.80;56.60
802;DHT22;383;48.766;9.270;2023-05-14T14:32:44;24.30;55.40
802;DHT22;383;48.766;9.270;2023-05-14T14:35:12;24.60;50.90
802;DHT22;383;48.766;9.270;2023-05-14T14:37:40;24.60;51.00
802;DHT22;383;48.766;9.270;2023-05-14T14:40:08;24.50;50.40
802;DHT22;383;48.766;9.270;2023-05-14T14:42:35;24.00;50.00
802;DHT22;383;48.766;9.270;2023-05-14T14:45:04;23.60;51.30
802;DHT22;383;48.766;9.270;2023-05-14T14:47:31;23.20;52.40
802;DHT22;383;48.766;9.270;2023-05-14T14:49:58;22.70;52.10
802;DHT22;383;48.766;9.270;2023-05-14T14:52:26;22.30;53.80
802;DHT22;383;48.766;9.270;2023-05-14T14:54:53;21.80;56.10
802;DHT22;383;48.766;9.270;2023-05-14T14:57:20;21.50;56.40
802;DHT22;383;48.766;9.270;2023-05-14T14:59:47;21.30;58.00
802;DHT22;383;48.766;9.270;2023-05-14T15:02:15;21.00;57.70
802;DHT22;383;48.766;9.270;2023-05-14T15:04:41;20.90;58.70
802;DHT22;383;48.766;9.270;2023-05-14T15:07:08;20.70;58.60
802;DHT22;383;48.766;9.270;2023-05-14T15:09:35;20.30;60.10
802;DHT22;383;48.766;9.270;2023-05-14T15:12:05;20.20;60.00
802;DHT22;383;48.766;9.270;2023-05-14T15:14:33;20.20;60.50
802;DHT22;383;48.766;9.270;2023-05-14T15:17:00;20.20;60.50
802;DHT22;383;48.766;9.270;2023-05-14T15:19:28;20.00;60.90
802;DHT22;383;48.766;9.270;2023-05-14T15:21:55;20.00;61.70
802;DHT22;383;48.766;9.270;2023-05-14T15:24:21;19.90;61.30
802;DHT22;383;48.766;9.270;2023-05-14T15:26:49;19.80;61.40
802;DHT22;383;48.766;9.270;2023-05-14T15:29:16;19.70;62.20
802;DHT22;383;48.766;9.270;2023-05-14T15:31:43;19.70;62.10
802;DHT22;383;48.766;9.270;2023-05-14T15:34:10;19.50;60.10
802;DHT22;383;48.766;9.270;2023-05-14T15:36:38;19.40;60.80
802;DHT22;383;48.766;9.270;2023-05-14T15:39:05;19.30;61.10
802;DHT22;383;48.766;9.270;2023-05-14T15:41:35;19.00;62.20
802;DHT22;383;48.766;9.270;2023-05-14T15:44:01;18.90;61.90
802;DHT22;383;48.766;9.270;2023-05-14T15:46:28;18.80;62.90
802;DHT22;383;48.766;9.270;2023-05-14T15:48:55;18.80;63.80
802;DHT22;383;48.766;9.270;2023-05-14T15:51:23;18.90;63.90
802;DHT22;383;48.766;9.270;2023-05-14T15:53:53;18.80;63.00
802;DHT22;383;48.766;9.270;2023-05-14T15:56:20;18.80;64.90
802;DHT22;383;48.766;9.270;2023-05-14T15:58:47;18.80;64.90
802;DHT22;383;48.766;9.270;2023-05-14T16:01:14;19.00;64.70
802;DHT22;383;48.766;9.270;2023-05-14T16:03:41;19.10;63.70
802;DHT22;383;48.766;9.270;2023-05-14T16:06:07;19.10;63.00
802;DHT22;383;48.766;9.270;2023-05-14T16:08:35;19.30;63.10
802;DHT22;383;48.766;9.270;2023-05-14T16:11:03;19.30;63.30
802;DHT22;383;48.766;9.270;2023-05-14T16:13:30;19.40;61.50
802;DHT22;383;48.766;9.270;2023-05-14T16:15:58;19.50;61.90
802;DHT22;383;48.766;9.270;2023-05-14T16:18:25;19.50;61.40
802;DHT22;383;48.766;9.270;2023-05-14T16:20:52;19.50;61.10
802;DHT22;383;48.766;9.270;2023-05-14T16:23:19;19.40;62.30
802;DHT22;383;48.766;9.270;2023-05-14T16:25:46;19.30;62.50
802;DHT22;383;48.766;9.270;2023-05-14T16:28:14;19.20;64.20
802;DHT22;383;48.766;9.270;2023-05-14T16:30:41;19.00;64.70
802;DHT22;383;48.766;9.270;2023-05-14T16:33:07;19.00;64.70
802;DHT22;383;48.766;9.270;2023-05-14T16:35:34;19.00;64.30